Time;durP1;ratioP1;P1;durP2;ratioP2;P2;SDS_P1;SDS_P2;PMS_P1;PMS_P2;Temp;Humidity;BMP_temperature;BMP_pressure;BME280_temperature;BME280_humidity;BME280_pressure;Samples;Min_cycle;Max_cycle;Signal;HPM_P1;HPM_P2
2022/08/15 03:00:53;;;;;;;0.70;0.70;;;22.50;71.10;;;;;;6016400;22;20530;-78
2022/08/15 03:03:20;;;;;;;1.00;0.90;;;22.50;71.60;;;;;;5033207;28;20478;-78
2022/08/15 03:05:48;;;;;;;0.70;0.70;;;22.50;71.50;;;;;;5032827;28;20860;-77
2022/08/15 03:08:15;;;;;;;0.70;0.70;;;22.50;72.00;;;;;;5033055;28;20570;-78
2022/08/15 03:10:42;;;;;;;0.77;0.70;;;22.40;71.80;;;;;;5032980;28;20857;-78
2022/08/15 03:15:42;;;;;;;0.70;0.60;;;22.20;72.80;;;;;;5054074;22;20495;-76
2022/08/15 03:18:11;;;;;;;0.70;0.70;;;22.00;73.30;;;;;;5033013;28;20427;-75
2022/08/15 03:20:38;;;;;;;0.70;0.60;;;21.90;73.50;;;;;;5032984;28;20443;-75
2022/08/15 03:23:07;;;;;;;0.80;0.70;;;21.80;74.00;;;;;;5036872;28;20496;-76
2022/08/15 03:25:39;;;;;;;0.70;0.63;;;21.80;74.10;;;;;;5036695;28;20839;-76
2022/08/15 03:28:05;;;;;;;0.80;0.70;;;21.70;74.40;;;;;;5036656;28;20529;-77
2022/08/15 03:30:32;;;;;;;0.70;0.70;;;21.60;74.80;;;;;;5036652;28;20451;-77
2022/08/15 03:32:59;;;;;;;0.80;0.80;;;21.50;75.40;;;;;;5036636;28;20454;-77
2022/08/15 03:35:30;;;;;;;0.70;0.60;;;21.50;75.70;;;;;;5036222;28;20875;-77
2022/08/15 03:37:58;;;;;;;0.70;0.60;;;21.30;76.50;;;;;;5036608;28;20428;-75
2022/08/15 03:40:25;;;;;;;0.80;0.77;;;21.30;76.90;;;;;;5036528;28;20447;-76
2022/08/15 03:42:52;;;;;;;1.10;1.00;;;21.40;76.70;;;;;;5036452;28;20455;-75
2022/08/15 03:45:20;;;;;;;0.90;0.70;;;21.40;77.00;;;;;;5036356;28;20462;-76
2022/08/15 03:47:47;;;;;;;0.80;0.70;;;21.50;77.00;;;;;;5036370;28;20485;-76
2022/08/15 03:50:14;;;;;;;0.70;0.60;;;21.60;77.10;;;;;;5036024;28;20934;-77
2022/08/15 03:52:51;;;;;;;0.80;0.80;;;21.40;77.70;;;;;;5036887;28;20448;-76
2022/08/15 03:55:18;;;;;;;0.70;0.70;;;21.30;78.20;;;;;;5036354;28;20497;-77
2022/08/15 03:57:45;;;;;;;0.80;0.70;;;21.00;79.10;;;;;;5036305;28;20450;-76
2022/08/15 04:00:14;;;;;;;0.73;0.73;;;21.10;79.10;;;;;;5036568;28;20447;-76
2022/08/15 04:02:41;;;;;;;0.70;0.67;;;21.00;79.70;;;;;;5036137;28;20451;-76
2022/08/15 04:05:08;;;;;;;0.77;0.67;;;21.10;79.70;;;;;;5035985;28;20459;-77
2022/08/15 04:07:36;;;;;;;0.70;0.60;;;21.10;78.90;;;;;;5035949;28;20443;-76
2022/08/15 04:10:06;;;;;;;0.80;0.70;;;21.20;78.70;;;;;;5035817;28;20893;-77
2022/08/15 04:12:35;;;;;;;0.80;0.60;;;21.20;77.90;;;;;;5036094;28;20447;-76
2022/08/15 04:15:02;;;;;;;0.80;0.80;;;21.20;77.90;;;;;;5035726;28;20562;-77
2022/08/15 04:17:29;;;;;;;0.80;0.70;;;21.10;78.20;;;;;;5035846;28;20447;-76
2022/08/15 04:19:56;;;;;;;0.70;0.60;;;21.00;78.30;;;;;;5035756;28;20505;-76
2022/08/15 04:22:31;;;;;;;0.80;0.73;;;20.70;79.10;;;;;;5035509;28;20455;-76
2022/08/15 04:25:01;;;;;;;0.70;0.60;;;20.80;79.20;;;;;;5035359;28;21028;-76
2022/08/15 04:27:29;;;;;;;0.70;0.70;;;20.80;79.20;;;;;;5035582;28;20534;-75
2022/08/15 04:29:55;;;;;;;0.80;0.77;;;20.80;79.50;;;;;;5035569;28;20451;-76
2022/08/15 04:32:26;;;;;;;0.70;0.67;;;20.70;79.70;;;;;;5035216;28;20454;-76
2022/08/15 04:34:53;;;;;;;0.70;0.60;;;20.80;79.60;;;;;;5035473;28;20471;-76
2022/08/15 04:37:20;;;;;;;0.80;0.70;;;20.90;79.30;;;;;;5035513;28;20447;-75
2022/08/15 04:39:48;;;;;;;0.70;0.70;;;21.10;78.80;;;;;;5035503;28;20435;-76
2022/08/15 04:42:15;;;;;;;0.70;0.70;;;20.80;79.20;;;;;;5035373;28;20452;-76
2022/08/15 04:44:43;;;;;;;0.80;0.80;;;20.60;80.00;;;;;;5035302;28;20467;-76
2022/08/15 04:47:10;;;;;;;0.80;0.80;;;20.70;79.80;;;;;;5035326;28;20483;-75
2022/08/15 04:49:37;;;;;;;0.70;0.70;;;20.70;79.80;;;;;;5034928;28;20509;-77
2022/08/15 04:52:10;;;;;;;0.70;0.70;;;20.70;79.70;;;;;;5034919;28;20812;-76
2022/08/15 04:54:38;;;;;;;0.70;0.70;;;20.80;79.60;;;;;;5035088;28;20468;-76
2022/08/15 04:57:05;;;;;;;0.70;0.70;;;20.80;79.50;;;;;;5034796;28;20996;-76
2022/08/15 04:59:32;;;;;;;0.70;0.70;;;21.00;78.80;;;;;;5035078;28;20439;-76
2022/08/15 05:02:00;;;;;;;0.70;0.70;;;20.70;78.90;;;;;;5035550;28;20858;-77
2022/08/15 05:04:27;;;;;;;0.70;0.70;;;20.60;79.50;;;;;;5034642;28;21009;-76
2022/08/15 05:06:53;;;;;;;0.80;0.70;;;20.60;79.60;;;;;;5034977;28;20868;-76
2022/08/15 05:09:20;;;;;;;0.80;0.70;;;20.60;79.30;;;;;;5034485;28;20533;-75
2022/08/15 05:11:47;;;;;;;0.70;0.60;;;20.80;78.70;;;;;;5034803;28;20497;-75
2022/08/15 05:14:13;;;;;;;0.70;0.60;;;21.00;78.00;;;;;;5034440;28;20537;-75
2022/08/15 05:16:40;;;;;;;0.70;0.70;;;21.10;77.60;;;;;;5034454;28;20855;-75
2022/08/15 05:19:08;;;;;;;0.73;0.60;;;21.20;77.10;;;;;;5034366;28;20936;-77
2022/08/15 05:21:35;;;;;;;0.70;0.70;;;21.20;76.70;;;;;;5034346;28;20859;-75
2022/08/15 05:24:01;;;;;;;0.70;0.60;;;21.20;76.90;;;;;;5034640;28;20471;-75
2022/08/15 05:26:29;;;;;;;0.70;0.60;;;21.20;76.80;;;;;;5034520;28;20455;-77
2022/08/15 05:28:56;;;;;;;0.77;0.70;;;21.10;76.90;;;;;;5034140;28;21001;-77
2022/08/15 05:31:23;;;;;;;0.70;0.60;;;21.00;77.10;;;;;;5034607;28;20454;-76
2022/08/15 05:33:50;;;;;;;0.70;0.50;;;21.00;77.50;;;;;;5034098;28;20529;-75
2022/08/15 05:36:18;;;;;;;0.80;0.60;;;21.00;77.30;;;;;;5034719;28;20509;-77
2022/08/15 05:38:50;;;;;;;0.70;0.60;;;21.00;77.80;;;;;;5034384;28;20447;-76
2022/08/15 05:41:30;;;;;;;0.70;0.60;;;20.90;77.90;;;;;;5034391;28;20494;-76
2022/08/15 05:44:02;;;;;;;0.70;0.70;;;21.00;77.80;;;;;;5034161;28;20823;-75
2022/08/15 05:46:41;;;;;;;0.70;0.60;;;21.00;77.70;;;;;;5033923;28;20436;-75
2022/08/15 05:49:17;;;;;;;0.70;0.70;;;21.00;77.50;;;;;;5033753;28;20974;-75
2022/08/15 05:51:49;;;;;;;0.70;0.63;;;21.20;77.20;;;;;;5033745;28;20431;-76
2022/08/15 05:54:25;;;;;;;0.70;0.60;;;21.30;76.70;;;;;;5034052;28;20476;-75
2022/08/15 05:57:03;;;;;;;0.90;0.70;;;21.40;76.10;;;;;;5034073;28;20432;-75
2022/08/15 05:59:34;;;;;;;0.70;0.60;;;21.50;76.00;;;;;;5034178;28;20477;-75
2022/08/15 06:02:08;;;;;;;0.70;0.60;;;21.50;75.70;;;;;;5034035;28;20785;-76
2022/08/15 06:04:43;;;;;;;0.70;0.60;;;21.70;75.10;;;;;;5034627;28;20975;-76
2022/08/15 06:07:15;;;;;;;0.73;0.60;;;21.90;74.30;;;;;;5034039;28;20428;-76
2022/08/15 06:09:45;;;;;;;0.70;0.70;;;22.00;74.20;;;;;;5033666;28;20821;-76
2022/08/15 06:12:17;;;;;;;0.70;0.60;;;21.80;74.20;;;;;;5034040;28;20451;-78
2022/08/15 06:14:47;;;;;;;0.70;0.60;;;21.60;74.90;;;;;;5033448;28;20990;-76
2022/08/15 06:17:20;;;;;;;0.80;0.67;;;21.50;75.10;;;;;;5033763;28;20582;-77
2022/08/15 06:19:49;;;;;;;0.80;0.60;;;21.70;75.00;;;;;;5034156;28;20431;-76
2022/08/15 06:22:27;;;;;;;0.87;0.87;;;21.90;74.50;;;;;;5034237;28;20498;-75
2022/08/15 06:25:03;;;;;;;0.70;0.67;;;21.90;73.60;;;;;;5033732;28;20813;-75
2022/08/15 06:27:35;;;;;;;0.70;0.60;;;21.80;74.00;;;;;;5033810;28;20961;-75
2022/08/15 06:30:08;;;;;;;0.90;0.73;;;21.50;74.40;;;;;;5034273;28;20472;-82
2022/08/15 06:32:42;;;;;;;0.80;0.73;;;21.50;74.70;;;;;;5034641;28;20432;-75
2022/08/15 06:35:23;;;;;;;0.70;0.60;;;21.80;74.40;;;;;;5034089;28;20472;-75
2022/08/15 06:38:02;;;;;;;0.70;0.60;;;21.80;74.10;;;;;;5034136;28;20440;-75
2022/08/15 06:40:39;;;;;;;0.70;0.60;;;21.70;73.90;;;;;;5033723;28;20435;-75
2022/08/15 06:43:08;;;;;;;0.70;0.60;;;21.90;73.40;;;;;;5033517;28;20427;-75
2022/08/15 06:45:37;;;;;;;0.70;0.50;;;22.10;72.70;;;;;;5033495;28;20558;-75
2022/08/15 06:48:08;;;;;;;0.80;0.70;;;22.30;72.00;;;;;;5033395;28;20455;-75
2022/08/15 06:50:39;;;;;;;0.70;0.60;;;22.50;71.20;;;;;;5033535;28;20623;-75
2022/08/15 06:53:11;;;;;;;0.73;0.70;;;22.70;70.80;;;;;;5033753;28;20439;-77
2022/08/15 06:55:52;;;;;;;0.70;0.60;;;22.70;70.50;;;;;;5033756;28;20486;-77
2022/08/15 06:58:27;;;;;;;0.70;0.60;;;22.60;70.70;;;;;;5044120;28;20467;-78
2022/08/15 07:01:01;;;;;;;0.80;0.63;;;22.80;70.30;;;;;;5045333;28;20431;-79
2022/08/15 07:03:39;;;;;;;0.70;0.60;;;23.10;70.20;;;;;;5061771;28;20443;-81
2022/08/15 07:06:11;;;;;;;0.80;0.63;;;23.20;69.60;;;;;;5062849;28;20499;-81
2022/08/15 07:08:43;;;;;;;0.80;0.70;;;23.40;69.40;;;;;;5056238;28;20466;-77
2022/08/15 07:11:20;;;;;;;0.70;0.57;;;23.80;68.50;;;;;;5038442;28;20518;-77
2022/08/15 07:13:57;;;;;;;0.80;0.70;;;24.00;67.30;;;;;;5038884;28;20479;-78
2022/08/15 07:16:31;;;;;;;0.70;0.60;;;24.00;66.10;;;;;;5039271;28;20454;-75
2022/08/15 07:19:01;;;;;;;0.73;0.60;;;23.80;66.60;;;;;;5039253;28;20432;-76
2022/08/15 07:21:28;;;;;;;0.70;0.60;;;24.00;66.00;;;;;;5037870;28;20454;-77
2022/08/15 07:24:07;;;;;;;0.70;0.60;;;24.10;66.50;;;;;;5038454;28;20471;-76
2022/08/15 07:26:41;;;;;;;0.70;0.60;;;24.00;65.90;;;;;;5038872;28;20427;-75
2022/08/15 07:29:11;;;;;;;0.70;0.60;;;24.00;66.70;;;;;;5044237;28;20538;-75
2022/08/15 07:31:38;;;;;;;0.70;0.60;;;24.10;65.70;;;;;;5043468;28;20858;-76
2022/08/15 07:34:16;;;;;;;0.70;0.60;;;24.30;65.60;;;;;;5037576;28;21003;-78
2022/08/15 07:36:54;;;;;;;0.70;0.50;;;24.40;64.40;;;;;;5037985;28;20486;-78
2022/08/15 07:39:26;;;;;;;0.70;0.60;;;24.50;63.80;;;;;;5037859;28;20432;-77
2022/08/15 07:41:53;;;;;;;0.70;0.50;;;24.70;63.30;;;;;;5037657;28;20842;-78
2022/08/15 07:44:23;;;;;;;0.70;0.57;;;24.70;63.40;;;;;;5037485;28;20580;-77
2022/08/15 07:46:55;;;;;;;0.70;0.60;;;24.80;62.70;;;;;;5037512;28;20428;-79
2022/08/15 07:49:25;;;;;;;0.70;0.60;;;24.60;63.50;;;;;;5037170;28;20982;-77
2022/08/15 07:52:03;;;;;;;0.70;0.50;;;24.60;64.30;;;;;;5039250;28;20478;-77
2022/08/15 07:54:43;;;;;;;0.70;0.50;;;24.80;63.40;;;;;;5039729;28;20521;-77
2022/08/15 07:57:20;;;;;;;0.80;0.60;;;24.70;63.00;;;;;;5040684;28;20435;-77
2022/08/15 08:00:11;;;;;;;0.80;0.60;;;24.90;62.70;;;;;;5037455;28;20423;-78
2022/08/15 08:02:43;;;;;;;0.70;0.60;;;25.30;61.10;;;;;;5037062;28;20486;-77
2022/08/15 08:05:12;;;;;;;0.60;0.50;;;25.40;61.10;;;;;;5037156;28;20467;-79
2022/08/15 08:07:41;;;;;;;0.80;0.60;;;25.50;60.20;;;;;;5037352;28;20455;-79
2022/08/15 08:10:16;;;;;;;0.80;0.70;;;25.70;60.20;;;;;;5037687;28;20570;-77
2022/08/15 08:12:57;;;;;;;0.70;0.50;;;26.10;59.40;;;;;;5037387;28;20907;-76
2022/08/15 08:15:30;;;;;;;0.70;0.50;;;26.60;58.90;;;;;;5037563;28;20483;-77
2022/08/15 08:18:03;;;;;;;0.70;0.57;;;27.00;58.70;;;;;;5037541;28;20436;-78
2022/08/15 08:20:36;;;;;;;0.67;0.50;;;27.30;56.00;;;;;;5037642;28;20490;-77
2022/08/15 08:23:09;;;;;;;0.70;0.60;;;27.40;55.90;;;;;;5037593;28;20450;-78
2022/08/15 08:25:44;;;;;;;0.90;0.70;;;27.40;55.90;;;;;;5036002;28;20463;-78
2022/08/15 08:28:17;;;;;;;0.70;0.60;;;27.40;55.60;;;;;;5035532;28;20960;-78
2022/08/15 08:30:55;;;;;;;0.70;0.60;;;27.50;55.40;;;;;;5036013;28;20475;-76
2022/08/15 08:33:39;;;;;;;0.70;0.50;;;27.60;55.40;;;;;;5036069;28;20860;-78
2022/08/15 08:36:21;;;;;;;0.70;0.60;;;27.60;54.70;;;;;;5036632;28;20439;-76
2022/08/15 08:38:56;;;;;;;0.80;0.50;;;27.40;55.90;;;;;;5036652;28;20436;-76
2022/08/15 08:41:34;;;;;;;0.70;0.50;;;27.40;54.70;;;;;;5035930;28;20427;-75
2022/08/15 08:44:17;;;;;;;0.70;0.50;;;27.30;55.10;;;;;;5035974;28;20499;-76
2022/08/15 08:47:10;;;;;;;0.70;0.60;;;27.30;55.00;;;;;;5035953;28;20494;-78
2022/08/15 08:49:47;;;;;;;0.70;0.60;;;27.10;55.30;;;;;;5036538;28;20466;-77
2022/08/15 08:52:22;;;;;;;1.40;0.60;;;26.80;55.30;;;;;;5037022;28;20520;-76
2022/08/15 08:54:57;;;;;;;0.70;0.60;;;26.90;55.90;;;;;;5039381;28;20463;-76
2022/08/15 08:57:31;;;;;;;0.70;0.60;;;27.20;55.20;;;;;;5038552;28;20424;-77
2022/08/15 09:00:03;;;;;;;0.60;0.50;;;27.30;54.80;;;;;;5039356;28;20431;-76
2022/08/15 09:02:36;;;;;;;0.70;0.50;;;26.90;54.90;;;;;;5037712;28;20435;-76
2022/08/15 09:05:10;;;;;;;0.80;0.60;;;26.30;55.00;;;;;;5037578;28;20517;-78
2022/08/15 09:07:48;;;;;;;0.70;0.57;;;25.90;57.10;;;;;;5038929;28;20505;-76
2022/08/15 09:10:23;;;;;;;0.70;0.53;;;26.10;56.50;;;;;;5039487;28;20463;-76
2022/08/15 09:15:43;;;;;;;0.70;0.60;;;27.00;54.30;;;;;;5152385;22;21060;-75
2022/08/15 09:18:14;;;;;;;0.70;0.60;;;27.40;53.00;;;;;;5034695;28;20447;-73
2022/08/15 09:20:42;;;;;;;0.70;0.60;;;27.60;53.00;;;;;;5033881;28;20428;-74
2022/08/15 09:23:13;;;;;;;0.70;0.53;;;27.90;53.00;;;;;;5034611;28;20497;-74
2022/08/15 09:25:50;;;;;;;0.70;0.60;;;28.10;52.40;;;;;;5034159;28;20816;-75
2022/08/15 09:28:26;;;;;;;0.70;0.60;;;28.30;51.50;;;;;;5034189;28;20777;-74
2022/08/15 09:30:55;;;;;;;0.70;0.60;;;28.60;51.20;;;;;;5034474;28;20466;-75
2022/08/15 09:33:47;;;;;;;1.13;0.60;;;28.80;50.30;;;;;;5034073;28;20996;-75
2022/08/15 09:36:33;;;;;;;0.70;0.60;;;29.00;49.70;;;;;;5034544;28;20440;-75
2022/08/15 09:39:16;;;;;;;0.80;0.50;;;28.90;49.10;;;;;;5034646;28;20498;-75
2022/08/15 09:41:56;;;;;;;0.63;0.50;;;28.80;49.20;;;;;;5034377;28;20431;-74
2022/08/15 09:44:42;;;;;;;0.90;0.60;;;28.70;49.10;;;;;;5034187;28;20471;-74
2022/08/15 09:47:25;;;;;;;0.70;0.60;;;28.30;49.50;;;;;;5034290;28;20439;-75
2022/08/15 09:50:18;;;;;;;0.70;0.53;;;28.10;50.60;;;;;;5034268;28;20861;-75
2022/08/15 09:52:58;;;;;;;0.70;0.50;;;28.00;50.90;;;;;;5026550;28;20502;-74
2022/08/15 09:55:32;;;;;;;0.70;0.60;;;28.20;50.70;;;;;;5034097;28;20463;-75
2022/08/15 09:57:59;;;;;;;0.70;0.60;;;28.40;50.00;;;;;;5033786;28;20867;-75
2022/08/15 10:00:41;;;;;;;0.70;0.50;;;28.20;49.20;;;;;;5034285;28;20435;-74
2022/08/15 10:03:21;;;;;;;0.70;0.60;;;27.90;49.80;;;;;;5033857;28;20434;-75
2022/08/15 10:06:01;;;;;;;0.70;0.50;;;27.80;50.30;;;;;;5033766;28;20471;-74
2022/08/15 10:09:17;;;;;;;0.70;0.50;;;27.70;50.30;;;;;;5033870;28;20518;-74
2022/08/15 10:12:21;;;;;;;0.70;0.60;;;27.80;49.70;;;;;;5033573;28;20911;-75
2022/08/15 10:15:03;;;;;;;0.70;0.60;;;27.90;50.40;;;;;;5033391;28;20475;-74
2022/08/15 10:17:44;;;;;;;0.70;0.60;;;27.70;50.60;;;;;;5033770;28;20419;-74
2022/08/15 10:20:59;;;;;;;0.70;0.50;;;27.80;51.60;;;;;;5034377;28;20512;-74
2022/08/15 10:23:31;;;;;;;0.70;0.60;;;27.90;50.40;;;;;;5033644;28;20503;-74
2022/08/15 10:26:27;;;;;;;0.80;0.60;;;27.80;49.50;;;;;;5033503;28;20467;-74
2022/08/15 10:29:13;;;;;;;0.90;0.60;;;27.70;49.80;;;;;;4999074;28;20518;-75
2022/08/15 10:31:50;;;;;;;0.70;0.50;;;27.60;50.00;;;;;;5033352;28;20471;-75
2022/08/15 10:34:35;;;;;;;0.70;0.60;;;27.60;50.20;;;;;;5033438;28;20471;-75
2022/08/15 10:37:22;;;;;;;0.70;0.60;;;27.40;50.40;;;;;;5033689;28;20434;-75
2022/08/15 10:39:59;;;;;;;0.70;0.60;;;27.40;50.00;;;;;;5033376;28;20438;-75
2022/08/15 10:42:35;;;;;;;0.70;0.50;;;27.50;50.90;;;;;;5033360;28;20443;-75
2022/08/15 10:45:11;;;;;;;1.17;0.50;;;27.60;49.60;;;;;;5033317;28;20472;-75
2022/08/15 10:47:48;;;;;;;0.70;0.50;;;27.70;49.80;;;;;;5033317;28;20523;-75
2022/08/15 10:50:20;;;;;;;0.70;0.50;;;27.90;50.30;;;;;;5033292;28;20537;-75
2022/08/15 10:53:04;;;;;;;0.80;0.60;;;28.20;48.50;;;;;;5033343;28;20442;-75
2022/08/15 10:55:33;;;;;;;0.70;0.50;;;28.20;49.00;;;;;;5033222;28;20471;-75
2022/08/15 10:58:03;;;;;;;1.20;0.60;;;28.30;49.10;;;;;;5033232;28;20852;-74
2022/08/15 11:00:42;;;;;;;0.70;0.50;;;28.30;47.80;;;;;;5034361;28;20471;-75
2022/08/15 11:03:18;;;;;;;0.70;0.60;;;28.20;47.90;;;;;;5033225;28;20428;-75
2022/08/15 11:05:55;;;;;;;0.80;0.60;;;28.30;49.50;;;;;;5032767;28;21023;-75
2022/08/15 11:08:23;;;;;;;0.70;0.67;;;28.60;49.10;;;;;;5033123;28;20443;-78
2022/08/15 11:10:50;;;;;;;0.70;0.60;;;28.80;47.80;;;;;;5033227;28;20487;-79
2022/08/15 11:13:21;;;;;;;0.70;0.60;;;28.80;47.90;;;;;;5037534;28;20447;-80
2022/08/15 11:15:54;;;;;;;0.70;0.50;;;28.90;47.40;;;;;;5037883;28;20479;-80
2022/08/15 11:18:28;;;;;;;0.70;0.60;;;29.00;47.30;;;;;;5038094;28;20437;-80
2022/08/15 11:21:02;;;;;;;0.70;0.50;;;29.00;47.50;;;;;;5038100;28;20420;-81
2022/08/15 11:23:33;;;;;;;0.70;0.60;;;28.80;47.30;;;;;;5037268;28;20446;-80
2022/08/15 11:26:00;;;;;;;0.70;0.60;;;28.70;48.60;;;;;;5038516;28;20474;-81
2022/08/15 11:28:29;;;;;;;0.70;0.60;;;28.80;48.00;;;;;;5039201;28;20454;-80
2022/08/15 11:31:01;;;;;;;0.70;0.60;;;29.00;47.40;;;;;;5037980;28;21013;-81
2022/08/15 11:33:40;;;;;;;1.20;0.60;;;29.00;46.80;;;;;;5037419;28;20432;-80
2022/08/15 11:36:12;;;;;;;0.70;0.60;;;28.90;46.80;;;;;;5037521;28;20447;-80
2022/08/15 11:38:44;;;;;;;0.70;0.57;;;28.90;47.00;;;;;;5034391;28;20459;-76
2022/08/15 11:41:17;;;;;;;0.80;0.60;;;29.00;46.90;;;;;;5032909;28;20424;-76
2022/08/15 11:43:45;;;;;;;0.80;0.70;;;29.00;47.10;;;;;;5035183;28;20439;-78
2022/08/15 11:46:11;;;;;;;0.70;0.60;;;29.00;47.00;;;;;;5037924;28;20451;-78
2022/08/15 11:48:39;;;;;;;0.77;0.63;;;29.00;46.30;;;;;;5037332;28;20447;-77
2022/08/15 11:51:10;;;;;;;0.90;0.80;;;29.00;47.60;;;;;;5039404;28;20998;-80
2022/08/15 11:53:41;;;;;;;0.70;0.60;;;29.00;47.20;;;;;;5042050;28;20432;-80
2022/08/15 11:56:08;;;;;;;1.47;0.90;;;29.00;47.60;;;;;;5042307;28;20432;-80
2022/08/15 11:58:38;;;;;;;0.70;0.70;;;29.00;48.60;;;;;;5038777;28;20451;-76
2022/08/15 12:01:23;;;;;;;0.70;0.60;;;29.10;48.70;;;;;;5036831;28;20524;-73
2022/08/15 12:04:02;;;;;;;0.70;0.60;;;29.00;49.00;;;;;;5036171;28;20439;-76
2022/08/15 12:06:32;;;;;;;1.20;0.60;;;28.90;48.90;;;;;;5036708;28;20451;-74
2022/08/15 12:09:11;;;;;;;1.50;0.90;;;28.70;49.20;;;;;;5036342;28;20862;-74
2022/08/15 12:11:45;;;;;;;0.70;0.60;;;28.80;48.40;;;;;;5035746;28;20974;-75
2022/08/15 12:14:19;;;;;;;0.70;0.63;;;28.90;48.70;;;;;;5036046;28;21060;-71
2022/08/15 12:16:49;;;;;;;1.13;0.70;;;28.90;48.70;;;;;;5036328;28;20440;-78
2022/08/15 12:19:29;;;;;;;0.70;0.60;;;29.10;48.60;;;;;;5036214;28;20424;-77
2022/08/15 12:21:59;;;;;;;0.70;0.50;;;29.20;48.40;;;;;;5035793;28;20432;-77
2022/08/15 12:24:28;;;;;;;0.70;0.60;;;29.50;47.90;;;;;;5035336;28;20546;-77
2022/08/15 12:26:57;;;;;;;0.70;0.60;;;29.60;47.40;;;;;;5035652;28;20809;-77
2022/08/15 12:29:24;;;;;;;0.80;0.50;;;29.50;46.90;;;;;;5035434;28;20988;-77
2022/08/15 12:31:52;;;;;;;0.70;0.60;;;29.60;47.30;;;;;;5035304;28;20906;-77
2022/08/15 12:34:20;;;;;;;0.70;0.60;;;29.80;46.60;;;;;;5035500;28;20476;-77
2022/08/15 12:36:47;;;;;;;0.70;0.60;;;29.90;46.50;;;;;;5035610;28;20443;-76
2022/08/15 12:39:18;;;;;;;0.70;0.60;;;29.90;46.20;;;;;;5035136;28;20452;-77
2022/08/15 12:41:48;;;;;;;0.70;0.70;;;29.80;45.30;;;;;;5035640;28;20427;-77
2022/08/15 12:44:21;;;;;;;0.80;0.70;;;29.30;46.50;;;;;;5035513;28;20467;-76
2022/08/15 12:46:48;;;;;;;0.90;0.70;;;29.10;46.60;;;;;;5035551;28;20562;-74
2022/08/15 12:49:15;;;;;;;0.70;0.60;;;29.00;47.30;;;;;;5035308;28;20447;-73
2022/08/15 12:51:42;;;;;;;0.70;0.50;;;28.70;47.20;;;;;;5035132;28;20480;-75
2022/08/15 12:54:08;;;;;;;0.70;0.60;;;28.40;47.30;;;;;;5033837;28;20956;-73
2022/08/15 12:56:37;;;;;;;0.70;0.60;;;28.40;47.80;;;;;;5034955;28;20451;-74
2022/08/15 12:59:05;;;;;;;0.70;0.60;;;28.60;48.80;;;;;;5035107;28;20447;-73
2022/08/15 13:01:33;;;;;;;0.70;0.53;;;28.70;46.70;;;;;;5035030;28;20443;-72
2022/08/15 13:04:04;;;;;;;0.80;0.67;;;28.80;47.30;;;;;;5034653;28;21062;-76
2022/08/15 13:06:42;;;;;;;1.20;0.60;;;29.00;47.50;;;;;;5035026;28;20460;-75
2022/08/15 13:09:10;;;;;;;0.70;0.50;;;29.30;48.60;;;;;;5034952;28;20454;-72
2022/08/15 13:11:40;;;;;;;0.70;0.60;;;29.50;48.50;;;;;;5034745;28;20487;-72
2022/08/15 13:14:07;;;;;;;0.70;0.60;;;29.70;48.90;;;;;;5034649;28;20550;-72
2022/08/15 13:16:35;;;;;;;0.70;0.60;;;29.80;49.00;;;;;;5034748;28;20489;-72
2022/08/15 13:19:02;;;;;;;0.70;0.60;;;29.80;48.70;;;;;;5034887;28;20448;-71
2022/08/15 13:24:13;;;;;;;0.90;0.70;;;29.70;48.70;;;;;;5034671;28;20454;-71
2022/08/15 13:26:43;;;;;;;0.80;0.60;;;29.70;49.20;;;;;;5034558;28;20455;-71
2022/08/15 13:29:12;;;;;;;0.70;0.60;;;30.00;49.10;;;;;;5034541;28;20443;-71
2022/08/15 13:31:39;;;;;;;0.80;0.80;;;30.20;48.10;;;;;;5034437;28;20487;-71
2022/08/15 13:34:06;;;;;;;0.70;0.67;;;30.30;46.70;;;;;;5034031;28;20475;-70
2022/08/15 13:36:35;;;;;;;2.23;0.80;;;30.40;47.50;;;;;;5034468;28;20506;-71
2022/08/15 13:39:04;;;;;;;0.70;0.60;;;30.20;47.40;;;;;;5034547;28;20501;-71
2022/08/15 13:41:31;;;;;;;1.43;0.60;;;30.30;49.00;;;;;;5033957;28;20820;-71
2022/08/15 13:44:01;;;;;;;0.70;0.60;;;30.60;47.60;;;;;;5034186;28;20502;-71
2022/08/15 13:46:28;;;;;;;0.80;0.60;;;30.80;47.10;;;;;;5034267;28;20498;-72
2022/08/15 13:48:57;;;;;;;0.77;0.63;;;31.10;46.50;;;;;;5034124;28;20448;-73
2022/08/15 13:51:28;;;;;;;0.70;0.60;;;31.20;46.60;;;;;;5034078;28;20480;-74
2022/08/15 13:53:56;;;;;;;0.97;0.60;;;31.40;46.00;;;;;;5033809;28;20439;-75
2022/08/15 13:56:22;;;;;;;0.80;0.80;;;31.50;46.10;;;;;;5033986;28;20505;-74
2022/08/15 13:58:49;;;;;;;0.80;0.80;;;31.60;45.70;;;;;;5033914;28;20451;-74
2022/08/15 14:01:20;;;;;;;0.70;0.60;;;31.80;45.30;;;;;;5033960;28;20459;-74
2022/08/15 14:03:48;;;;;;;0.90;0.60;;;31.80;44.90;;;;;;5033565;28;20800;-72
2022/08/15 14:06:15;;;;;;;0.80;0.70;;;31.80;44.80;;;;;;5033482;28;20466;-73
2022/08/15 14:08:42;;;;;;;1.53;1.00;;;31.60;45.10;;;;;;5033819;28;20792;-72
2022/08/15 14:11:10;;;;;;;0.70;0.60;;;31.50;45.40;;;;;;5033684;28;20487;-73
2022/08/15 14:13:36;;;;;;;0.70;0.60;;;31.50;45.60;;;;;;5033426;28;20451;-73
2022/08/15 14:16:04;;;;;;;0.70;0.60;;;31.40;45.40;;;;;;5033342;28;20873;-74
2022/08/15 14:18:35;;;;;;;0.70;0.60;;;31.20;46.10;;;;;;5033709;28;20459;-72
2022/08/15 14:21:04;;;;;;;0.80;0.70;;;31.10;46.90;;;;;;5033610;28;20451;-73
2022/08/15 14:23:30;;;;;;;0.70;0.60;;;30.80;47.70;;;;;;5033673;28;20474;-73
2022/08/15 14:25:57;;;;;;;0.70;0.70;;;30.20;48.40;;;;;;5033140;28;21029;-73
2022/08/15 14:28:24;;;;;;;0.70;0.60;;;29.90;47.60;;;;;;5033184;28;20875;-73
2022/08/15 14:30:51;;;;;;;1.33;0.60;;;29.60;47.70;;;;;;5033145;28;20993;-73
2022/08/15 14:33:19;;;;;;;0.70;0.60;;;29.30;48.50;;;;;;5033166;28;21025;-73
2022/08/15 14:35:47;;;;;;;0.70;0.60;;;29.20;49.40;;;;;;5033045;28;21009;-73
2022/08/15 14:38:13;;;;;;;0.80;0.70;;;28.80;50.80;;;;;;5033460;28;20542;-74
2022/08/15 14:40:44;;;;;;;0.80;0.70;;;28.50;51.80;;;;;;5033399;28;20471;-75
2022/08/15 14:43:12;;;;;;;1.00;0.73;;;28.10;55.10;;;;;;5033436;28;20432;-75
2022/08/15 14:45:39;;;;;;;0.90;0.60;;;27.70;54.50;;;;;;5032981;28;20478;-72
2022/08/15 14:48:07;;;;;;;1.00;0.70;;;27.30;53.90;;;;;;5033105;28;20798;-74
2022/08/15 14:50:36;;;;;;;0.70;0.60;;;26.90;54.80;;;;;;5033454;28;20857;-73
2022/08/15 14:53:05;;;;;;;0.70;0.60;;;26.20;56.80;;;;;;5033307;28;20475;-73
2022/08/15 14:55:33;;;;;;;0.90;0.70;;;25.80;57.90;;;;;;5033364;28;20498;-74
2022/08/15 14:58:00;;;;;;;0.70;0.60;;;25.50;59.10;;;;;;5033350;28;20454;-73
2022/08/15 15:00:31;;;;;;;0.70;0.60;;;25.40;59.90;;;;;;5032993;28;20795;-73
2022/08/15 15:02:58;;;;;;;0.70;0.60;;;25.20;60.70;;;;;;5033280;28;20444;-73
2022/08/15 15:05:25;;;;;;;0.80;0.70;;;25.00;61.30;;;;;;5033058;28;20482;-74
2022/08/15 15:07:57;;;;;;;0.80;0.60;;;24.80;62.50;;;;;;5032855;28;20943;-72
2022/08/15 15:10:28;;;;;;;0.70;0.70;;;24.60;63.10;;;;;;5033158;28;20432;-74
2022/08/15 15:12:58;;;;;;;0.80;0.60;;;24.50;63.40;;;;;;5033049;28;20542;-74
2022/08/15 15:15:26;;;;;;;0.70;0.60;;;24.20;64.60;;;;;;5034163;28;20549;-74
2022/08/15 15:17:53;;;;;;;0.70;0.50;;;23.80;64.70;;;;;;5033682;28;20831;-73
2022/08/15 15:20:20;;;;;;;0.70;0.50;;;23.50;65.40;;;;;;5036941;28;20447;-74
2022/08/15 15:22:47;;;;;;;0.70;0.60;;;23.50;66.00;;;;;;5036857;28;20478;-74
2022/08/15 15:25:13;;;;;;;0.80;0.60;;;23.50;65.50;;;;;;5036761;28;20463;-74
2022/08/15 15:27:42;;;;;;;0.87;0.53;;;23.40;65.70;;;;;;5036803;28;20481;-74
2022/08/15 15:30:11;;;;;;;0.80;0.60;;;23.40;65.70;;;;;;5036721;28;20447;-74
2022/08/15 15:32:37;;;;;;;0.70;0.60;;;23.60;65.10;;;;;;5036667;28;20493;-74
2022/08/15 15:35:07;;;;;;;0.70;0.50;;;23.80;64.70;;;;;;5036240;28;21056;-74
2022/08/15 15:37:35;;;;;;;0.80;0.70;;;24.10;63.30;;;;;;5036697;28;20534;-74
2022/08/15 15:40:04;;;;;;;0.70;0.53;;;24.30;62.50;;;;;;5036702;28;20447;-74
2022/08/15 15:42:31;;;;;;;0.70;0.60;;;24.50;61.50;;;;;;5036494;28;20439;-73
2022/08/15 15:44:59;;;;;;;0.70;0.50;;;24.50;61.00;;;;;;5036391;28;20467;-73
2022/08/15 15:47:26;;;;;;;0.70;0.60;;;24.70;61.40;;;;;;5036137;28;20961;-77
2022/08/15 15:49:53;;;;;;;0.70;0.50;;;24.90;61.70;;;;;;5036345;28;20455;-77
2022/08/15 15:52:22;;;;;;;0.70;0.60;;;25.10;60.60;;;;;;5036238;28;20560;-77
2022/08/15 15:54:50;;;;;;;0.70;0.57;;;25.20;60.40;;;;;;5036234;28;20463;-77
2022/08/15 15:57:17;;;;;;;0.90;0.60;;;25.30;60.80;;;;;;5036288;28;20835;-72
2022/08/15 15:59:44;;;;;;;0.70;0.60;;;25.30;61.00;;;;;;5035886;28;20862;-74
2022/08/15 16:02:19;;;;;;;0.70;0.60;;;25.50;60.30;;;;;;5036236;28;20966;-77
2022/08/15 16:04:46;;;;;;;0.70;0.60;;;25.40;60.00;;;;;;5036145;28;20502;-76
2022/08/15 16:07:12;;;;;;;0.70;0.60;;;25.20;59.40;;;;;;5036296;28;20450;-74
2022/08/15 16:09:39;;;;;;;0.70;0.60;;;25.30;60.00;;;;;;5036055;28;20454;-75
2022/08/15 16:12:11;;;;;;;0.70;0.60;;;25.20;59.90;;;;;;5036851;28;20512;-76
2022/08/15 16:14:46;;;;;;;0.90;0.60;;;25.30;59.00;;;;;;5036760;28;20537;-74
2022/08/15 16:17:18;;;;;;;0.70;0.50;;;25.40;58.20;;;;;;5036024;28;20572;-75
2022/08/15 16:19:50;;;;;;;0.70;0.50;;;25.40;57.50;;;;;;5035893;28;20447;-75